Time;durP1;ratioP1;P1;durP2;ratioP2;P2;SDS_P1;SDS_P2;PMS_P1;PMS_P2;Temp;Humidity;BMP_temperature;BMP_pressure;BME280_temperature;BME280_humidity;BME280_pressure;Samples;Min_cycle;Max_cycle;Signal;HPM_P1;HPM_P2
2023/01/20 00:01:28;;;;;;;4.00;1.77;;;0.40;99.90;;;;;;5087112;28;20398;-80
2023/01/20 00:03:55;;;;;;;5.25;1.77;;;0.40;99.90;;;;;;5088609;28;20466;-80
2023/01/20 00:06:21;;;;;;;3.38;1.40;;;0.40;99.90;;;;;;5071137;28;20772;-80
2023/01/20 00:08:55;;;;;;;4.15;1.58;;;0.40;99.90;;;;;;5088452;28;20801;-80
2023/01/20 00:11:22;;;;;;;4.72;1.40;;;0.30;99.90;;;;;;5086901;28;20424;-80
2023/01/20 00:13:48;;;;;;;7.63;1.83;;;0.30;99.90;;;;;;5087234;28;20978;-80
2023/01/20 00:16:13;;;;;;;3.42;1.60;;;0.30;99.90;;;;;;5087551;28;20425;-80
2023/01/20 00:18:40;;;;;;;5.60;1.70;;;0.30;99.90;;;;;;5089321;28;20403;-80
2023/01/20 00:21:12;;;;;;;5.78;1.70;;;0.30;99.90;;;;;;5088701;28;20869;-80
2023/01/20 00:23:39;;;;;;;5.27;1.90;;;0.20;99.90;;;;;;5078218;28;20425;-80
2023/01/20 00:26:17;;;;;;;5.03;1.98;;;0.20;99.90;;;;;;5085256;28;20457;-80
2023/01/20 00:28:43;;;;;;;5.07;2.05;;;0.20;99.90;;;;;;5087179;28;20414;-80
2023/01/20 00:31:21;;;;;;;4.25;1.60;;;0.20;99.90;;;;;;5087139;28;20413;-80
2023/01/20 00:33:49;;;;;;;5.15;1.90;;;0.10;99.90;;;;;;5086252;28;21179;-80
2023/01/20 00:36:16;;;;;;;4.45;1.92;;;0.10;99.90;;;;;;5086750;28;20417;-80
2023/01/20 00:38:42;;;;;;;4.10;1.90;;;0.10;99.90;;;;;;5070651;28;20409;-80
2023/01/20 00:41:08;;;;;;;3.83;1.70;;;0.10;99.90;;;;;;5086430;28;20417;-80
2023/01/20 00:43:34;;;;;;;5.15;1.85;;;0.10;99.90;;;;;;5086689;28;20781;-80
2023/01/20 00:46:00;;;;;;;6.07;1.90;;;0.10;99.90;;;;;;5088283;28;20851;-80
2023/01/20 00:48:25;;;;;;;3.17;1.85;;;0.10;99.90;;;;;;5086817;28;20409;-80
2023/01/20 00:50:51;;;;;;;6.13;2.13;;;0.00;99.90;;;;;;5086613;28;20414;-80
2023/01/20 00:53:17;;;;;;;5.05;2.33;;;0.00;99.90;;;;;;5070049;28;20417;-80
2023/01/20 00:55:42;;;;;;;6.82;2.30;;;0.00;99.90;;;;;;5087021;28;20919;-80
2023/01/20 00:58:08;;;;;;;6.22;2.40;;;0.00;99.90;;;;;;5087768;28;20764;-80
2023/01/20 01:00:34;;;;;;;5.37;2.50;;;0.00;99.90;;;;;;5069235;28;20418;-80
2023/01/20 01:03:00;;;;;;;4.40;2.20;;;0.00;99.90;;;;;;5086706;28;20426;-80
2023/01/20 01:05:25;;;;;;;6.60;2.55;;;0.00;99.90;;;;;;5086442;28;20421;-80
2023/01/20 01:07:51;;;;;;;4.88;2.75;;;0.00;99.90;;;;;;5085789;28;20429;-80
2023/01/20 01:10:17;;;;;;;5.63;2.77;;;0.00;99.90;;;;;;5084677;28;20418;-80
2023/01/20 01:12:42;;;;;;;6.30;2.57;;;0.00;99.90;;;;;;5086108;28;20417;-80
2023/01/20 01:15:08;;;;;;;5.60;2.80;;;-0.10;99.90;;;;;;5087010;28;20432;-80
2023/01/20 01:17:34;;;;;;;6.38;2.83;;;-0.10;99.90;;;;;;5070269;28;20455;-80
2023/01/20 01:20:00;;;;;;;6.25;3.10;;;-0.10;99.90;;;;;;5070073;28;20418;-80
2023/01/20 01:22:25;;;;;;;5.20;2.90;;;-0.10;99.90;;;;;;5079451;28;20439;-80
2023/01/20 01:24:51;;;;;;;6.17;3.00;;;-0.10;99.90;;;;;;5086067;28;20780;-80
2023/01/20 01:27:17;;;;;;;6.20;3.40;;;-0.10;99.90;;;;;;5086302;28;20418;-80
2023/01/20 01:29:42;;;;;;;6.17;3.37;;;-0.20;99.90;;;;;;5086650;28;20397;-80
2023/01/20 01:32:08;;;;;;;5.97;3.23;;;-0.20;99.90;;;;;;5086185;28;20450;-80
2023/01/20 01:34:33;;;;;;;6.57;3.50;;;-0.20;99.90;;;;;;5069735;28;20434;-80
2023/01/20 01:36:59;;;;;;;8.93;3.60;;;-0.20;99.90;;;;;;5084187;28;20429;-80
2023/01/20 01:39:26;;;;;;;9.10;3.60;;;-0.20;99.90;;;;;;5072479;28;20453;-80
2023/01/20 01:41:51;;;;;;;6.30;3.67;;;-0.20;99.90;;;;;;5088077;28;20421;-80
2023/01/20 01:44:17;;;;;;;7.45;4.15;;;-0.20;99.90;;;;;;5084198;28;20540;-80
2023/01/20 01:46:43;;;;;;;8.23;3.67;;;-0.30;99.90;;;;;;5068530;28;20447;-80
2023/01/20 01:49:11;;;;;;;8.55;4.32;;;-0.30;99.90;;;;;;5070445;28;20401;-80
2023/01/20 01:51:41;;;;;;;8.88;4.93;;;-0.20;99.90;;;;;;5075130;28;20524;-80
2023/01/20 01:54:11;;;;;;;10.65;5.00;;;-0.30;99.90;;;;;;5077990;28;20472;-80
2023/01/20 01:56:40;;;;;;;9.18;4.80;;;-0.30;99.90;;;;;;5053141;28;20947;-80
2023/01/20 01:59:07;;;;;;;9.90;5.00;;;-0.20;99.90;;;;;;5083922;28;20409;-80
2023/01/20 02:01:35;;;;;;;10.63;5.30;;;-0.20;99.90;;;;;;5074422;28;20806;-80
2023/01/20 02:04:07;;;;;;;10.85;5.75;;;-0.20;99.90;;;;;;5080225;28;20404;-80
2023/01/20 02:06:37;;;;;;;9.98;5.18;;;-0.10;99.90;;;;;;5092831;28;20432;-80
2023/01/20 02:09:03;;;;;;;10.20;5.80;;;-0.10;99.90;;;;;;5085515;28;20794;-80
2023/01/20 02:11:34;;;;;;;10.63;6.40;;;-0.20;99.90;;;;;;5086858;28;20402;-80
2023/01/20 02:13:59;;;;;;;10.13;6.03;;;-0.10;99.90;;;;;;5090735;28;20448;-80
2023/01/20 02:16:31;;;;;;;11.90;6.53;;;-0.10;99.90;;;;;;5095144;28;20429;-80
2023/01/20 02:19:10;;;;;;;15.95;7.82;;;-0.10;99.90;;;;;;5072348;28;20982;-80
2023/01/20 02:22:12;;;;;;;15.38;8.23;;;-0.10;99.90;;;;;;5073317;28;20406;-80
2023/01/20 02:25:22;;;;;;;17.40;9.03;;;0.00;99.90;;;;;;5090301;28;20410;-80
2023/01/20 02:28:14;;;;;;;17.48;8.75;;;0.00;99.90;;;;;;5082482;28;20422;-80
2023/01/20 02:31:17;;;;;;;17.38;8.63;;;0.10;99.90;;;;;;5086308;28;20430;-80
2023/01/20 02:33:58;;;;;;;17.20;8.57;;;0.10;99.90;;;;;;5076480;28;20428;-80
2023/01/20 02:36:33;;;;;;;19.63;9.38;;;0.20;99.90;;;;;;5089512;28;20428;-80
2023/01/20 02:39:10;;;;;;;19.67;9.18;;;0.20;99.90;;;;;;5089491;28;20414;-80
2023/01/20 02:42:04;;;;;;;19.90;8.98;;;0.20;99.90;;;;;;5106653;28;20419;-80
2023/01/20 02:44:49;;;;;;;20.43;9.70;;;0.20;99.90;;;;;;5086440;28;20404;-80
2023/01/20 02:47:24;;;;;;;20.77;9.77;;;0.20;99.90;;;;;;5101921;28;20410;-80
2023/01/20 02:50:11;;;;;;;21.05;9.43;;;0.20;99.90;;;;;;5102102;28;20820;-80
2023/01/20 02:52:45;;;;;;;23.90;10.18;;;0.20;99.90;;;;;;5089161;28;20413;-81
2023/01/20 02:55:15;;;;;;;25.40;10.55;;;0.20;99.90;;;;;;5088993;28;20911;-80
2023/01/20 02:57:46;;;;;;;39.08;11.75;;;0.20;99.90;;;;;;5089432;28;20450;-80
2023/01/20 03:00:21;;;;;;;33.03;11.38;;;0.20;99.90;;;;;;5089534;28;20410;-80
2023/01/20 03:02:50;;;;;;;45.17;12.38;;;0.20;99.90;;;;;;5072095;28;21096;-80
2023/01/20 03:05:32;;;;;;;31.77;11.98;;;0.20;99.90;;;;;;5071823;28;20402;-80
2023/01/20 03:08:00;;;;;;;32.08;12.18;;;0.20;99.90;;;;;;5089381;28;20452;-81
2023/01/20 03:10:30;;;;;;;35.05;13.20;;;0.20;99.90;;;;;;5088917;28;20406;-81
2023/01/20 03:13:12;;;;;;;32.67;13.50;;;0.20;99.90;;;;;;5089096;28;20409;-80
2023/01/20 03:15:58;;;;;;;29.73;12.45;;;0.30;99.90;;;;;;5085363;28;20931;-80
2023/01/20 03:18:24;;;;;;;29.73;12.30;;;0.30;99.90;;;;;;5087279;28;20458;-80
2023/01/20 03:20:50;;;;;;;29.10;12.48;;;0.30;99.90;;;;;;5081046;28;20398;-80
2023/01/20 03:23:16;;;;;;;26.42;11.82;;;0.30;99.90;;;;;;5069651;28;20759;-80
2023/01/20 03:25:44;;;;;;;25.10;11.80;;;0.30;99.90;;;;;;5086126;28;20410;-80
2023/01/20 03:28:10;;;;;;;27.38;12.25;;;0.40;99.90;;;;;;5088250;28;20458;-80
2023/01/20 03:30:36;;;;;;;27.58;11.98;;;0.40;99.90;;;;;;5069732;28;20485;-80
2023/01/20 03:33:02;;;;;;;26.65;12.18;;;0.40;99.90;;;;;;5075829;28;20436;-80
2023/01/20 03:35:28;;;;;;;28.23;12.63;;;0.40;99.90;;;;;;5088134;28;20438;-80
2023/01/20 03:37:54;;;;;;;27.55;12.45;;;0.40;99.90;;;;;;5101005;28;20782;-80
2023/01/20 03:40:23;;;;;;;26.40;11.88;;;0.40;99.90;;;;;;5088637;28;20926;-80
2023/01/20 03:43:00;;;;;;;27.70;12.70;;;0.50;99.90;;;;;;5100206;28;20734;-80
2023/01/20 03:45:30;;;;;;;31.65;13.20;;;0.50;99.90;;;;;;5088676;28;20990;-80
2023/01/20 03:48:16;;;;;;;28.30;12.68;;;0.50;99.90;;;;;;5088116;28;20497;-80
2023/01/20 03:51:04;;;;;;;28.40;12.88;;;0.50;99.90;;;;;;5070996;28;20398;-80
2023/01/20 03:53:53;;;;;;;31.35;13.00;;;0.50;99.90;;;;;;5077086;28;20467;-81
2023/01/20 03:56:28;;;;;;;27.55;12.68;;;0.60;99.90;;;;;;5072178;28;20433;-80
2023/01/20 03:58:58;;;;;;;32.33;13.70;;;0.60;99.90;;;;;;5088064;28;20410;-80
2023/01/20 04:01:33;;;;;;;26.85;13.15;;;0.60;99.90;;;;;;5087877;28;20398;-80
2023/01/20 04:04:01;;;;;;;28.30;13.32;;;0.60;99.90;;;;;;5087284;28;20417;-80
2023/01/20 04:06:28;;;;;;;28.27;13.43;;;0.60;99.90;;;;;;5088407;28;20466;-80
2023/01/20 04:09:01;;;;;;;26.17;13.30;;;0.60;99.90;;;;;;5087648;28;20410;-80
2023/01/20 04:11:27;;;;;;;30.85;14.85;;;0.60;99.90;;;;;;5087788;28;20455;-80
2023/01/20 04:13:53;;;;;;;30.53;15.10;;;0.60;99.90;;;;;;5086385;28;20434;-80
2023/01/20 04:16:20;;;;;;;30.60;15.00;;;0.60;99.90;;;;;;5070857;28;20398;-80
2023/01/20 04:18:48;;;;;;;29.92;14.30;;;0.60;99.90;;;;;;5087242;28;20398;-80
2023/01/20 04:21:41;;;;;;;28.85;14.18;;;0.60;99.90;;;;;;5087290;28;20922;-80
2023/01/20 04:24:32;;;;;;;31.58;14.98;;;0.60;99.90;;;;;;5079171;28;20446;-80
2023/01/20 04:26:57;;;;;;;30.60;14.90;;;0.60;99.90;;;;;;5090203;28;20413;-80
2023/01/20 04:29:23;;;;;;;31.67;16.15;;;0.60;99.90;;;;;;5087532;28;20394;-81
2023/01/20 04:31:48;;;;;;;31.90;15.97;;;0.60;99.90;;;;;;5086876;28;20925;-80
2023/01/20 04:34:14;;;;;;;34.03;16.53;;;0.60;99.90;;;;;;5087750;28;20796;-80
2023/01/20 04:36:41;;;;;;;32.50;16.42;;;0.60;99.90;;;;;;5087109;28;20418;-80
2023/01/20 04:39:06;;;;;;;33.70;16.70;;;0.60;99.90;;;;;;5087522;28;20406;-80
2023/01/20 04:41:32;;;;;;;32.87;17.60;;;0.60;99.90;;;;;;5085997;28;20485;-80
2023/01/20 04:43:58;;;;;;;34.67;17.53;;;0.60;99.90;;;;;;5086903;28;20406;-80
2023/01/20 04:46:23;;;;;;;31.15;16.35;;;0.60;99.90;;;;;;5070430;28;20489;-80
2023/01/20 04:48:49;;;;;;;31.20;16.80;;;0.60;99.90;;;;;;5095258;28;21001;-80
2023/01/20 04:51:14;;;;;;;30.05;16.38;;;0.60;99.90;;;;;;5104129;28;20421;-80
2023/01/20 04:53:40;;;;;;;31.63;16.67;;;0.60;99.90;;;;;;5105345;28;20821;-80
2023/01/20 04:56:14;;;;;;;31.20;17.20;;;0.60;99.90;;;;;;5084747;28;20481;-80
2023/01/20 04:58:40;;;;;;;34.38;17.30;;;0.60;99.90;;;;;;5079487;28;20412;-80
2023/01/20 05:01:06;;;;;;;30.63;16.63;;;0.60;99.90;;;;;;5089269;28;20990;-81
2023/01/20 05:03:32;;;;;;;35.63;17.50;;;0.60;99.90;;;;;;5085761;28;20406;-80
2023/01/20 05:05:58;;;;;;;33.67;17.23;;;0.60;99.90;;;;;;5086725;28;20413;-80
2023/01/20 05:08:24;;;;;;;35.07;17.87;;;0.50;99.90;;;;;;5069706;28;20394;-80
2023/01/20 05:10:49;;;;;;;34.97;18.27;;;0.50;99.90;;;;;;5086316;28;21244;-80
2023/01/20 05:13:15;;;;;;;38.05;18.08;;;0.50;99.90;;;;;;5086282;28;20393;-80
2023/01/20 05:15:42;;;;;;;36.57;18.37;;;0.50;99.90;;;;;;5086866;28;20432;-80
2023/01/20 05:18:08;;;;;;;33.47;17.02;;;0.50;99.90;;;;;;5070352;28;20415;-80
2023/01/20 05:20:33;;;;;;;36.47;17.67;;;0.50;99.90;;;;;;5069698;28;20402;-80
2023/01/20 05:22:59;;;;;;;41.57;19.30;;;0.50;99.90;;;;;;5075417;28;20395;-80
2023/01/20 05:25:25;;;;;;;39.50;18.38;;;0.40;99.90;;;;;;5066380;28;20406;-80
2023/01/20 05:27:50;;;;;;;43.77;18.47;;;0.40;99.90;;;;;;5086658;28;20495;-81
2023/01/20 05:30:16;;;;;;;44.70;18.30;;;0.50;99.90;;;;;;5087404;28;20401;-80
2023/01/20 05:32:44;;;;;;;40.95;17.70;;;0.40;99.90;;;;;;5086853;28;20395;-80
2023/01/20 05:35:09;;;;;;;41.42;17.05;;;0.40;99.90;;;;;;5086393;28;20940;-80
2023/01/20 05:37:35;;;;;;;37.67;16.23;;;0.40;99.90;;;;;;5087800;28;20402;-80
2023/01/20 05:40:01;;;;;;;39.73;16.70;;;0.40;99.90;;;;;;5071113;28;20406;-80
2023/01/20 05:42:26;;;;;;;38.15;16.95;;;0.40;99.90;;;;;;5088547;28;20410;-80
2023/01/20 05:44:52;;;;;;;38.13;16.48;;;0.40;99.90;;;;;;5087328;28;20394;-81
2023/01/20 05:47:18;;;;;;;47.40;17.50;;;0.30;99.90;;;;;;5086821;28;20874;-80
2023/01/20 05:49:59;;;;;;;38.45;16.95;;;0.40;99.90;;;;;;5052529;28;20478;-80
2023/01/20 05:52:25;;;;;;;45.73;18.50;;;0.30;99.90;;;;;;5087289;28;20397;-80
2023/01/20 05:54:50;;;;;;;39.38;16.90;;;0.40;99.90;;;;;;5090457;28;20463;-80
2023/01/20 05:57:17;;;;;;;42.33;17.40;;;0.40;99.90;;;;;;5090846;28;20801;-80
2023/01/20 05:59:46;;;;;;;43.95;17.45;;;0.40;99.90;;;;;;5090075;28;20398;-80
2023/01/20 06:02:12;;;;;;;41.78;16.98;;;0.40;99.90;;;;;;5091809;28;21034;-80
2023/01/20 06:04:37;;;;;;;40.95;16.33;;;0.40;99.90;;;;;;5089767;28;20397;-80
2023/01/20 06:07:03;;;;;;;42.50;17.27;;;0.40;99.90;;;;;;5091683;28;20450;-80
2023/01/20 06:09:28;;;;;;;35.20;15.10;;;0.40;99.90;;;;;;5091117;28;20394;-80
2023/01/20 06:11:54;;;;;;;37.45;15.93;;;0.40;99.90;;;;;;5090301;28;20806;-80
2023/01/20 06:14:20;;;;;;;39.50;15.82;;;0.40;99.90;;;;;;5072557;28;20434;-80
2023/01/20 06:16:45;;;;;;;41.57;16.27;;;0.40;99.90;;;;;;5090242;28;20410;-80
2023/01/20 06:19:11;;;;;;;38.92;15.63;;;0.40;99.90;;;;;;5090180;28;20897;-80
2023/01/20 06:21:37;;;;;;;38.38;15.80;;;0.40;99.90;;;;;;5090933;28;20876;-81
2023/01/20 06:24:02;;;;;;;37.83;15.80;;;0.40;99.90;;;;;;5076432;28;20931;-80
2023/01/20 06:26:28;;;;;;;40.30;15.38;;;0.30;99.90;;;;;;5090002;28;20973;-81
2023/01/20 06:28:58;;;;;;;39.10;15.48;;;0.30;99.90;;;;;;5089771;28;20448;-80
2023/01/20 06:31:24;;;;;;;38.58;16.15;;;0.30;99.90;;;;;;5073244;28;20410;-80
2023/01/20 06:33:49;;;;;;;38.55;15.68;;;0.40;99.90;;;;;;5089700;28;21263;-80
2023/01/20 06:36:16;;;;;;;35.43;14.83;;;0.30;99.90;;;;;;5089885;28;20419;-80
2023/01/20 06:38:47;;;;;;;38.53;16.13;;;0.30;99.90;;;;;;5089203;28;20408;-80
2023/01/20 06:41:13;;;;;;;36.00;15.55;;;0.40;99.90;;;;;;5089299;28;20486;-80
2023/01/20 06:43:39;;;;;;;36.05;15.88;;;0.40;99.90;;;;;;5090567;28;20959;-80
2023/01/20 06:46:09;;;;;;;34.63;15.18;;;0.40;99.90;;;;;;5089609;28;20455;-80
2023/01/20 06:48:35;;;;;;;34.10;15.15;;;0.40;99.90;;;;;;5076852;28;20407;-80
2023/01/20 06:51:02;;;;;;;35.55;15.13;;;0.40;99.90;;;;;;5089621;28;20741;-80
2023/01/20 06:53:28;;;;;;;33.10;15.07;;;0.40;99.90;;;;;;5089536;28;20398;-79
2023/01/20 06:55:55;;;;;;;32.93;14.20;;;0.40;99.90;;;;;;5085274;28;20958;-79
2023/01/20 06:58:25;;;;;;;34.97;15.20;;;0.40;99.90;;;;;;5086339;28;20410;-80
2023/01/20 07:00:52;;;;;;;36.08;15.43;;;0.40;99.90;;;;;;5087035;28;20414;-79
2023/01/20 07:03:17;;;;;;;32.55;15.32;;;0.40;99.90;;;;;;5087181;28;20422;-80
2023/01/20 07:05:43;;;;;;;34.58;15.07;;;0.40;99.90;;;;;;5087542;28;20414;-80
2023/01/20 07:08:10;;;;;;;32.03;15.25;;;0.40;99.90;;;;;;5089012;28;20398;-80
2023/01/20 07:10:36;;;;;;;30.90;14.73;;;0.40;99.90;;;;;;5089142;28;20485;-80
2023/01/20 07:13:02;;;;;;;31.10;15.25;;;0.40;99.90;;;;;;5076977;28;20481;-80
2023/01/20 07:15:27;;;;;;;31.70;15.33;;;0.40;99.90;;;;;;5088871;28;21292;-80
2023/01/20 07:17:53;;;;;;;32.77;14.80;;;0.40;99.90;;;;;;5091983;28;20400;-80
2023/01/20 07:20:19;;;;;;;30.35;14.52;;;0.40;99.90;;;;;;5108935;28;20991;-80
2023/01/20 07:22:44;;;;;;;29.43;14.33;;;0.40;99.90;;;;;;5092272;28;20400;-80
2023/01/20 07:25:10;;;;;;;32.00;15.10;;;0.40;99.90;;;;;;5090011;28;20515;-80
2023/01/20 07:27:35;;;;;;;29.45;14.23;;;0.40;99.90;;;;;;5087940;28;20949;-80
2023/01/20 07:30:01;;;;;;;30.47;15.00;;;0.50;99.90;;;;;;5088570;28;20477;-80
2023/01/20 07:32:30;;;;;;;29.92;14.25;;;0.50;99.90;;;;;;5088830;28;20499;-80
2023/01/20 07:34:55;;;;;;;31.05;14.65;;;0.40;99.90;;;;;;5087905;28;20434;-80
2023/01/20 07:37:21;;;;;;;27.10;13.77;;;0.40;99.90;;;;;;5088687;28;20408;-80
2023/01/20 07:39:46;;;;;;;28.55;14.27;;;0.40;99.90;;;;;;5071692;28;20517;-80
2023/01/20 07:42:12;;;;;;;26.77;13.53;;;0.40;99.90;;;;;;5088114;28;20477;-80
2023/01/20 07:44:38;;;;;;;28.43;14.07;;;0.50;99.90;;;;;;5088663;28;20826;-80
2023/01/20 07:47:03;;;;;;;27.90;13.80;;;0.50;99.90;;;;;;5088314;28;20394;-80
2023/01/20 07:49:29;;;;;;;28.33;14.03;;;0.50;99.90;;;;;;5089990;28;20415;-80
2023/01/20 07:51:54;;;;;;;31.40;14.40;;;0.50;99.90;;;;;;5089164;28;20405;-80
2023/01/20 07:54:20;;;;;;;28.67;14.45;;;0.50;99.90;;;;;;5090239;28;20825;-80
2023/01/20 07:56:47;;;;;;;30.57;14.43;;;0.50;99.90;;;;;;5089294;28;20405;-80
2023/01/20 07:59:12;;;;;;;29.05;14.35;;;0.50;99.90;;;;;;5087860;28;20435;-79
2023/01/20 08:01:38;;;;;;;27.40;14.98;;;0.50;99.90;;;;;;5089093;28;20402;-80
2023/01/20 08:04:04;;;;;;;27.57;14.57;;;0.50;99.90;;;;;;5090001;28;20420;-80
2023/01/20 08:06:30;;;;;;;28.27;14.93;;;0.50;99.90;;;;;;5087499;28;20443;-80
2023/01/20 08:09:00;;;;;;;29.83;15.43;;;0.50;99.90;;;;;;5087272;28;20405;-80
2023/01/20 08:11:25;;;;;;;31.85;16.10;;;0.50;99.90;;;;;;5088008;28;20468;-80
2023/01/20 08:13:51;;;;;;;31.90;15.82;;;0.50;99.90;;;;;;5088289;28;20480;-80
2023/01/20 08:16:17;;;;;;;33.83;16.33;;;0.50;99.90;;;;;;5087133;28;20440;-80
2023/01/20 08:18:43;;;;;;;34.47;16.23;;;0.50;99.90;;;;;;5086995;28;20406;-80
2023/01/20 08:21:22;;;;;;;32.63;16.15;;;0.60;99.90;;;;;;5089195;28;20387;-80
2023/01/20 08:23:49;;;;;;;32.97;16.23;;;0.60;99.90;;;;;;5087065;28;20406;-80
2023/01/20 08:26:15;;;;;;;30.40;15.43;;;0.60;99.90;;;;;;5087031;28;20451;-80
2023/01/20 08:28:41;;;;;;;33.10;15.93;;;0.60;99.90;;;;;;5090834;28;20407;-80
2023/01/20 08:31:15;;;;;;;32.42;16.48;;;0.60;99.90;;;;;;5089537;28;20402;-80
2023/01/20 08:33:42;;;;;;;31.88;16.33;;;0.60;99.90;;;;;;5088196;28;20406;-80
2023/01/20 08:36:14;;;;;;;35.28;16.90;;;0.70;99.90;;;;;;5089041;28;20414;-80
2023/01/20 08:38:40;;;;;;;34.60;17.55;;;0.70;99.90;;;;;;5100676;28;20409;-80
2023/01/20 08:41:15;;;;;;;35.47;17.50;;;0.70;99.90;;;;;;5072204;28;20437;-80
2023/01/20 08:43:40;;;;;;;35.25;17.17;;;0.70;99.90;;;;;;5089277;28;20413;-80
2023/01/20 08:46:12;;;;;;;34.57;17.10;;;0.70;99.90;;;;;;5072185;28;20402;-80
2023/01/20 08:48:39;;;;;;;35.45;17.42;;;0.70;99.90;;;;;;5088260;28;20434;-80
2023/01/20 08:51:14;;;;;;;35.10;17.50;;;0.70;99.90;;;;;;5088684;28;21156;-80
2023/01/20 08:53:41;;;;;;;35.83;18.45;;;0.70;99.90;;;;;;5088590;28;20975;-80
2023/01/20 08:56:07;;;;;;;32.95;18.10;;;0.70;99.90;;;;;;5090866;28;20491;-80
2023/01/20 08:58:33;;;;;;;34.85;18.05;;;0.70;99.90;;;;;;5090250;28;20409;-80
2023/01/20 09:00:59;;;;;;;38.53;18.27;;;0.70;99.90;;;;;;5091533;28;20412;-80
2023/01/20 09:03:24;;;;;;;36.13;18.17;;;0.70;99.90;;;;;;5090158;28;20401;-80
2023/01/20 09:05:50;;;;;;;33.78;18.25;;;0.70;99.90;;;;;;5086772;28;20896;-80
2023/01/20 09:08:16;;;;;;;34.33;18.33;;;0.70;99.90;;;;;;5085883;28;20410;-80
2023/01/20 09:10:43;;;;;;;37.00;19.67;;;0.70;99.90;;;;;;5088964;28;20431;-80
2023/01/20 09:13:08;;;;;;;37.83;18.98;;;0.80;99.90;;;;;;5106947;28;20922;-80
2023/01/20 09:15:34;;;;;;;37.83;18.95;;;0.80;99.90;;;;;;5089271;28;20433;-79
2023/01/20 09:18:00;;;;;;;36.47;19.80;;;0.80;99.90;;;;;;5086611;28;20409;-80
2023/01/20 09:20:27;;;;;;;35.90;19.53;;;0.80;99.90;;;;;;5087805;28;20417;-80
2023/01/20 09:22:53;;;;;;;34.78;18.30;;;0.80;99.90;;;;;;5086723;28;20413;-80
2023/01/20 09:25:19;;;;;;;35.43;19.07;;;0.80;99.90;;;;;;5069688;28;20397;-80
2023/01/20 09:27:45;;;;;;;33.43;18.40;;;0.80;99.90;;;;;;5088095;28;20401;-80
2023/01/20 09:30:10;;;;;;;35.55;18.40;;;0.90;99.90;;;;;;5090991;28;20422;-80
2023/01/20 09:32:36;;;;;;;35.97;19.67;;;0.80;99.90;;;;;;5091064;28;20405;-80
2023/01/20 09:35:02;;;;;;;38.33;19.90;;;0.90;99.90;;;;;;5090783;28;20426;-80
2023/01/20 09:43:53;;;;;;;37.58;19.70;;;0.90;99.90;;;;;;5092577;28;20426;-80
2023/01/20 09:46:43;;;;;;;40.70;21.13;;;1.00;99.90;;;;;;5091985;28;20412;-80
2023/01/20 09:55:58;;;;;;;41.13;21.75;;;1.10;99.90;;;;;;5082144;28;20433;-80
2023/01/20 09:58:50;;;;;;;39.25;21.08;;;1.10;99.90;;;;;;5082631;28;20488;-80
2023/01/20 10:01:17;;;;;;;37.72;20.10;;;1.10;99.90;;;;;;5094794;28;20440;-80
2023/01/20 10:04:10;;;;;;;37.70;21.10;;;1.20;99.90;;;;;;5092573;28;20406;-80
2023/01/20 10:07:05;;;;;;;37.70;21.38;;;1.20;99.90;;;;;;5072003;28;20404;-80
2023/01/20 10:09:53;;;;;;;40.33;21.75;;;1.20;99.90;;;;;;5062076;28;20442;-80
2023/01/20 10:12:58;;;;;;;39.35;21.85;;;1.20;99.90;;;;;;5108947;28;20416;-80
2023/01/20 10:15:25;;;;;;;39.05;21.30;;;1.30;99.90;;;;;;5053381;28;20431;-80
2023/01/20 10:17:59;;;;;;;38.35;20.77;;;1.30;99.90;;;;;;5109500;28;21479;-80
2023/01/20 10:20:37;;;;;;;38.58;21.25;;;1.30;99.90;;;;;;5094091;28;20493;-80
2023/01/20 10:23:15;;;;;;;39.45;20.52;;;1.30;99.90;;;;;;5089997;28;20511;-80
2023/01/20 10:25:54;;;;;;;38.70;20.52;;;1.30;99.90;;;;;;5091999;28;21032;-80
2023/01/20 10:28:34;;;;;;;37.35;21.02;;;1.30;99.90;;;;;;5091826;28;20874;-80
2023/01/20 10:31:03;;;;;;;37.65;20.42;;;1.40;99.90;;;;;;5091008;28;20413;-80
2023/01/20 10:33:36;;;;;;;36.95;20.27;;;1.40;99.90;;;;;;5092531;28;20421;-80
2023/01/20 10:36:02;;;;;;;33.63;19.55;;;1.40;99.90;;;;;;5089499;28;20414;-80
2023/01/20 10:38:41;;;;;;;37.47;20.30;;;1.40;99.90;;;;;;5091588;28;21038;-80
2023/01/20 10:41:17;;;;;;;35.83;20.40;;;1.50;99.90;;;;;;5090291;28;20692;-80
2023/01/20 10:43:43;;;;;;;35.58;19.83;;;1.40;99.90;;;;;;5080254;28;20977;-80
2023/01/20 10:46:09;;;;;;;36.28;19.88;;;1.40;99.90;;;;;;5094014;28;20488;-80
2023/01/20 10:48:53;;;;;;;35.17;19.58;;;1.40;99.90;;;;;;5091277;28;20410;-80
2023/01/20 10:51:28;;;;;;;34.85;19.63;;;1.40;99.90;;;;;;5073642;28;20540;-80
2023/01/20 10:53:56;;;;;;;36.60;20.17;;;1.40;99.90;;;;;;5088912;28;20479;-80
2023/01/20 10:56:50;;;;;;;36.90;19.98;;;1.40;99.90;;;;;;5094677;28;20494;-80
2023/01/20 10:59:19;;;;;;;34.35;20.30;;;1.40;99.90;;;;;;5096127;28;20844;-80
2023/01/20 11:01:49;;;;;;;37.67;20.25;;;1.40;99.90;;;;;;5089146;28;20402;-80
2023/01/20 11:04:20;;;;;;;31.90;18.88;;;1.40;99.90;;;;;;5092955;28;20459;-80
2023/01/20 11:06:55;;;;;;;33.03;18.60;;;1.40;99.90;;;;;;5099767;28;20400;-80
2023/01/20 11:09:33;;;;;;;34.47;19.08;;;1.40;99.90;;;;;;5091023;28;20909;-80
2023/01/20 11:12:00;;;;;;;34.47;19.38;;;1.40;99.90;;;;;;5107691;28;20412;-80
2023/01/20 11:14:27;;;;;;;34.38;18.67;;;1.40;99.90;;;;;;5065673;28;20424;-80
2023/01/20 11:17:00;;;;;;;33.35;18.40;;;1.40;99.90;;;;;;5107502;28;20504;-80
2023/01/20 11:19:26;;;;;;;32.50;19.00;;;1.40;99.90;;;;;;5100826;28;20508;-80
2023/01/20 11:21:52;;;;;;;35.90;19.63;;;1.40;99.90;;;;;;5087038;28;20398;-80
2023/01/20 11:24:37;;;;;;;36.67;21.23;;;1.50;99.90;;;;;;5068367;28;20412;-80
2023/01/20 11:27:12;;;;;;;36.03;20.70;;;1.50;99.90;;;;;;5072676;28;20416;-80
2023/01/20 11:30:09;;;;;;;37.17;20.90;;;1.50;99.90;;;;;;5098730;28;20511;-80
2023/01/20 11:32:40;;;;;;;39.42;21.60;;;1.50;99.90;;;;;;5049604;28;20418;-80
2023/01/20 11:35:24;;;;;;;35.53;21.10;;;1.50;99.90;;;;;;5088593;28;20429;-80
2023/01/20 11:37:50;;;;;;;34.35;20.77;;;1.50;99.90;;;;;;5071165;28;20413;-80
2023/01/20 11:40:22;;;;;;;38.22;21.02;;;1.50;99.90;;;;;;5075868;28;20407;-79
2023/01/20 11:42:50;;;;;;;35.25;20.63;;;1.50;99.90;;;;;;5088047;28;20402;-80
2023/01/20 11:45:34;;;;;;;35.17;21.05;;;1.50;99.90;;;;;;5088007;28;20413;-80
2023/01/20 11:48:20;;;;;;;34.00;20.75;;;1.50;99.90;;;;;;5078189;28;20449;-80
2023/01/20 11:50:56;;;;;;;32.85;18.88;;;1.50;99.90;;;;;;5087125;28;20532;-80
2023/01/20 11:53:23;;;;;;;34.00;20.03;;;1.50;99.90;;;;;;5087905;28;20410;-79
2023/01/20 11:56:02;;;;;;;35.40;20.15;;;1.50;99.90;;;;;;5072031;28;20433;-80
2023/01/20 11:58:32;;;;;;;34.55;19.92;;;1.50;99.90;;;;;;5076365;28;20410;-80
2023/01/20 12:01:01;;;;;;;35.90;20.55;;;1.50;99.90;;;;;;5088358;28;20410;-80
2023/01/20 12:03:54;;;;;;;35.20;19.98;;;1.50;99.90;;;;;;5087979;28;20459;-81
2023/01/20 12:06:35;;;;;;;34.75;20.15;;;1.50;99.90;;;;;;5088076;28;20452;-80
2023/01/20 12:09:00;;;;;;;34.00;19.55;;;1.50;99.90;;;;;;5070630;28;20446;-80
2023/01/20 12:11:37;;;;;;;34.63;20.20;;;1.60;99.90;;;;;;5088960;28;20446;-80
2023/01/20 12:14:26;;;;;;;34.13;19.20;;;1.60;99.90;;;;;;5088342;28;20429;-80
2023/01/20 12:17:20;;;;;;;36.85;20.95;;;1.60;99.90;;;;;;5086924;28;20899;-80
2023/01/20 12:19:52;;;;;;;35.22;19.83;;;1.60;99.90;;;;;;5066910;28;20819;-80
2023/01/20 12:22:24;;;;;;;34.40;20.15;;;1.60;99.90;;;;;;5089125;28;20425;-80
2023/01/20 12:25:19;;;;;;;34.50;20.05;;;1.60;99.90;;;;;;5090146;28;20402;-80
2023/01/20 12:27:58;;;;;;;38.20;21.02;;;1.60;99.90;;;;;;5060593;28;20401;-80
2023/01/20 12:30:59;;;;;;;35.33;20.92;;;1.70;99.90;;;;;;5083971;28;20411;-80
2023/01/20 12:33:30;;;;;;;36.47;20.85;;;1.70;99.90;;;;;;5065121;28;20414;-80
2023/01/20 12:36:10;;;;;;;38.08;20.98;;;1.70;99.90;;;;;;5087336;28;20410;-80
2023/01/20 12:39:13;;;;;;;35.10;19.75;;;1.70;99.90;;;;;;5087112;28;20410;-80
2023/01/20 12:41:45;;;;;;;35.42;20.20;;;1.70;99.90;;;;;;5086647;28;20418;-80
2023/01/20 12:44:26;;;;;;;33.38;19.30;;;1.70;99.90;;;;;;5070788;28;20806;-80
2023/01/20 12:47:30;;;;;;;33.15;19.83;;;1.70;99.90;;;;;;5086456;28;20425;-80
2023/01/20 12:50:16;;;;;;;34.53;19.48;;;1.70;99.90;;;;;;5088137;28;20406;-80
2023/01/20 12:53:00;;;;;;;35.83;20.00;;;1.80;99.90;;;;;;5088192;28;20410;-80
2023/01/20 12:55:55;;;;;;;32.70;18.73;;;1.80;99.90;;;;;;5077328;28;20461;-80
2023/01/20 12:58:34;;;;;;;34.97;20.15;;;1.80;99.90;;;;;;5086340;28;20444;-80
2023/01/20 13:01:18;;;;;;;32.00;18.90;;;1.80;99.90;;;;;;5070647;28;20444;-80
2023/01/20 13:04:04;;;;;;;36.03;20.47;;;1.80;99.90;;;;;;5087508;28;21024;-80
2023/01/20 13:06:59;;;;;;;39.05;20.00;;;1.80;99.90;;;;;;5086480;28;20410;-80
2023/01/20 13:09:46;;;;;;;35.08;19.92;;;1.80;99.90;;;;;;5046173;28;20417;-80
2023/01/20 13:12:56;;;;;;;30.90;17.75;;;1.90;99.90;;;;;;5087845;28;20414;-80
2023/01/20 13:15:35;;;;;;;31.08;19.08;;;1.80;99.90;;;;;;5082239;28;20451;-80